sensor_id;sensor_type;location;lat;lon;timestamp;pressure;altitude;pressure_sealevel;temperature;humidity
33151;BME280;19508;42.578;23.416;2023-10-31T00:01:17;93905.59;;;12.12;74.36
33151;BME280;19508;42.578;23.416;2023-10-31T00:03:43;93921.31;;;12.21;74.11
33151;BME280;19508;42.578;23.416;2023-10-31T00:06:09;93905.19;;;12.31;73.58
33151;BME280;19508;42.578;23.416;2023-10-31T00:08:35;93904.66;;;12.34;73.42
33151;BME280;19508;42.578;23.416;2023-10-31T00:11:01;93902.50;;;12.31;73.70
33151;BME280;19508;42.578;23.416;2023-10-31T00:13:27;93900.38;;;12.43;73.45
33151;BME280;19508;42.578;23.416;2023-10-31T00:15:53;93888.41;;;12.29;73.39
33151;BME280;19508;42.578;23.416;2023-10-31T00:18:18;93913.78;;;12.28;73.98
33151;BME280;19508;42.578;23.416;2023-10-31T00:20:45;93894.53;;;12.09;74.89
33151;BME280;19508;42.578;23.416;2023-10-31T00:23:14;93910.50;;;12.16;74.53
33151;BME280;19508;42.578;23.416;2023-10-31T00:25:42;93893.50;;;12.15;74.33
33151;BME280;19508;42.578;23.416;2023-10-31T00:28:08;93887.78;;;12.06;74.42
33151;BME280;19508;42.578;23.416;2023-10-31T00:30:33;93872.38;;;12.07;74.03
33151;BME280;19508;42.578;23.416;2023-10-31T00:32:59;93878.06;;;12.05;74.22
33151;BME280;19508;42.578;23.416;2023-10-31T00:35:25;93870.72;;;12.01;74.29
33151;BME280;19508;42.578;23.416;2023-10-31T00:37:50;93877.19;;;12.00;74.21
33151;BME280;19508;42.578;23.416;2023-10-31T00:40:15;93876.88;;;11.91;74.83
33151;BME280;19508;42.578;23.416;2023-10-31T00:42:42;93881.06;;;12.14;74.43
33151;BME280;19508;42.578;23.416;2023-10-31T00:45:09;93873.75;;;12.09;74.57
33151;BME280;19508;42.578;23.416;2023-10-31T00:47:35;93882.91;;;12.08;74.75
33151;BME280;19508;42.578;23.416;2023-10-31T00:50:01;93871.59;;;12.06;74.73
33151;BME280;19508;42.578;23.416;2023-10-31T00:52:26;93863.59;;;11.84;75.17
33151;BME280;19508;42.578;23.416;2023-10-31T00:54:52;93871.41;;;11.81;75.44
33151;BME280;19508;42.578;23.416;2023-10-31T00:57:17;93868.78;;;11.96;74.76
33151;BME280;19508;42.578;23.416;2023-10-31T00:59:43;93874.94;;;11.86;75.17
33151;BME280;19508;42.578;23.416;2023-10-31T01:02:08;93879.56;;;11.91;74.90
33151;BME280;19508;42.578;23.416;2023-10-31T01:04:36;93874.44;;;11.90;74.73
33151;BME280;19508;42.578;23.416;2023-10-31T01:07:02;93869.84;;;11.90;74.82
33151;BME280;19508;42.578;23.416;2023-10-31T01:09:28;93860.00;;;11.74;75.06
33151;BME280;19508;42.578;23.416;2023-10-31T01:11:54;93845.97;;;11.72;75.11
33151;BME280;19508;42.578;23.416;2023-10-31T01:14:19;93851.88;;;11.69;75.07
33151;BME280;19508;42.578;23.416;2023-10-31T01:16:45;93855.63;;;11.68;75.21
33151;BME280;19508;42.578;23.416;2023-10-31T01:19:11;93861.63;;;11.75;75.25
33151;BME280;19508;42.578;23.416;2023-10-31T01:21:36;93862.25;;;11.82;74.57
33151;BME280;19508;42.578;23.416;2023-10-31T01:24:02;93850.19;;;11.57;75.31
33151;BME280;19508;42.578;23.416;2023-10-31T01:26:27;93846.25;;;11.38;75.49
33151;BME280;19508;42.578;23.416;2023-10-31T01:28:55;93836.06;;;11.45;75.56
33151;BME280;19508;42.578;23.416;2023-10-31T01:31:22;93851.41;;;11.40;75.84
33151;BME280;19508;42.578;23.416;2023-10-31T01:33:48;93859.16;;;11.36;76.13
33151;BME280;19508;42.578;23.416;2023-10-31T01:36:13;93835.81;;;11.15;76.42
33151;BME280;19508;42.578;23.416;2023-10-31T01:38:39;93838.22;;;11.11;76.41
33151;BME280;19508;42.578;23.416;2023-10-31T01:41:05;93842.91;;;11.26;76.07
33151;BME280;19508;42.578;23.416;2023-10-31T01:43:35;93844.72;;;11.15;76.47
33151;BME280;19508;42.578;23.416;2023-10-31T01:46:01;93847.94;;;11.12;76.32
33151;BME280;19508;42.578;23.416;2023-10-31T01:48:29;93851.53;;;11.23;76.21
33151;BME280;19508;42.578;23.416;2023-10-31T01:50:56;93848.16;;;11.11;76.45
33151;BME280;19508;42.578;23.416;2023-10-31T01:53:24;93835.41;;;11.01;76.37
33151;BME280;19508;42.578;23.416;2023-10-31T01:55:51;93858.91;;;11.06;76.84
33151;BME280;19508;42.578;23.416;2023-10-31T01:58:18;93850.78;;;11.00;76.57
33151;BME280;19508;42.578;23.416;2023-10-31T02:00:46;93857.59;;;10.81;77.45
33151;BME280;19508;42.578;23.416;2023-10-31T02:03:24;93834.41;;;10.80;77.49
33151;BME280;19508;42.578;23.416;2023-10-31T02:05:54;93849.06;;;10.89;77.62
33151;BME280;19508;42.578;23.416;2023-10-31T02:08:20;93852.50;;;10.85;77.36
33151;BME280;19508;42.578;23.416;2023-10-31T02:10:45;93832.59;;;10.86;77.29
33151;BME280;19508;42.578;23.416;2023-10-31T02:13:12;93831.72;;;11.07;76.24
33151;BME280;19508;42.578;23.416;2023-10-31T02:15:38;93834.69;;;11.11;75.69
33151;BME280;19508;42.578;23.416;2023-10-31T02:18:03;93824.44;;;11.08;75.85
33151;BME280;19508;42.578;23.416;2023-10-31T02:20:29;93824.97;;;10.78;75.71
33151;BME280;19508;42.578;23.416;2023-10-31T02:22:54;93830.91;;;11.07;74.97
33151;BME280;19508;42.578;23.416;2023-10-31T02:25:20;93832.34;;;10.87;75.85
33151;BME280;19508;42.578;23.416;2023-10-31T02:27:47;93831.97;;;10.79;76.13
33151;BME280;19508;42.578;23.416;2023-10-31T02:30:12;93824.34;;;10.97;75.75
33151;BME280;19508;42.578;23.416;2023-10-31T02:32:38;93828.19;;;11.07;75.31
33151;BME280;19508;42.578;23.416;2023-10-31T02:35:04;93808.72;;;10.99;75.73
33151;BME280;19508;42.578;23.416;2023-10-31T02:37:32;93822.34;;;11.15;74.97
33151;BME280;19508;42.578;23.416;2023-10-31T02:39:58;93824.44;;;11.08;75.40
33151;BME280;19508;42.578;23.416;2023-10-31T02:42:25;93821.66;;;10.97;75.97
33151;BME280;19508;42.578;23.416;2023-10-31T02:44:50;93817.47;;;10.85;76.46
33151;BME280;19508;42.578;23.416;2023-10-31T02:47:16;93802.56;;;10.72;76.88
33151;BME280;19508;42.578;23.416;2023-10-31T02:49:42;93821.50;;;10.82;77.14
33151;BME280;19508;42.578;23.416;2023-10-31T02:52:07;93810.72;;;10.82;76.93
33151;BME280;19508;42.578;23.416;2023-10-31T02:54:33;93820.94;;;10.80;77.08
33151;BME280;19508;42.578;23.416;2023-10-31T02:56:58;93811.44;;;10.72;77.38
33151;BME280;19508;42.578;23.416;2023-10-31T02:59:36;93815.47;;;10.70;77.77
33151;BME280;19508;42.578;23.416;2023-10-31T03:02:02;93808.84;;;10.83;77.07
33151;BME280;19508;42.578;23.416;2023-10-31T03:04:29;93816.22;;;10.92;76.84
33151;BME280;19508;42.578;23.416;2023-10-31T03:06:54;93801.56;;;10.83;76.89
33151;BME280;19508;42.578;23.416;2023-10-31T03:09:21;93818.97;;;10.97;76.37
33151;BME280;19508;42.578;23.416;2023-10-31T03:11:46;93812.34;;;10.83;76.82
33151;BME280;19508;42.578;23.416;2023-10-31T03:14:12;93799.00;;;10.66;77.06
33151;BME280;19508;42.578;23.416;2023-10-31T03:16:37;93820.78;;;10.92;76.48
33151;BME280;19508;42.578;23.416;2023-10-31T03:19:04;93805.72;;;10.64;77.67
33151;BME280;19508;42.578;23.416;2023-10-31T03:21:30;93820.84;;;10.70;78.02
33151;BME280;19508;42.578;23.416;2023-10-31T03:23:55;93798.25;;;10.71;77.48
33151;BME280;19508;42.578;23.416;2023-10-31T03:26:22;93807.44;;;10.75;77.78
33151;BME280;19508;42.578;23.416;2023-10-31T03:28:48;93822.41;;;10.93;77.30
33151;BME280;19508;42.578;23.416;2023-10-31T03:31:14;93805.53;;;10.76;77.54
33151;BME280;19508;42.578;23.416;2023-10-31T03:33:41;93822.41;;;10.93;76.92
33151;BME280;19508;42.578;23.416;2023-10-31T03:36:07;93814.31;;;10.61;78.24
33151;BME280;19508;42.578;23.416;2023-10-31T03:38:33;93801.91;;;10.60;78.03
33151;BME280;19508;42.578;23.416;2023-10-31T03:40:59;93808.41;;;10.64;78.21
33151;BME280;19508;42.578;23.416;2023-10-31T03:43:26;93790.47;;;10.48;78.14
33151;BME280;19508;42.578;23.416;2023-10-31T03:45:54;93789.72;;;10.30;78.55
33151;BME280;19508;42.578;23.416;2023-10-31T03:48:20;93802.19;;;10.36;78.87
33151;BME280;19508;42.578;23.416;2023-10-31T03:50:46;93798.63;;;10.31;78.89
33151;BME280;19508;42.578;23.416;2023-10-31T03:53:11;93799.94;;;10.28;79.22
33151;BME280;19508;42.578;23.416;2023-10-31T03:55:37;93799.94;;;10.28;79.41
33151;BME280;19508;42.578;23.416;2023-10-31T03:58:03;93799.31;;;10.43;78.67
33151;BME280;19508;42.578;23.416;2023-10-31T04:00:30;93781.75;;;10.40;78.30
33151;BME280;19508;42.578;23.416;2023-10-31T04:02:56;93789.09;;;10.23;79.69
33151;BME280;19508;42.578;23.416;2023-10-31T04:05:21;93792.72;;;10.12;79.99
33151;BME280;19508;42.578;23.416;2023-10-31T04:07:48;93786.09;;;10.20;80.17
33151;BME280;19508;42.578;23.416;2023-10-31T04:10:21;93782.22;;;10.32;79.84
33151;BME280;19508;42.578;23.416;2023-10-31T04:12:46;93778.41;;;10.28;80.19
33151;BME280;19508;42.578;23.416;2023-10-31T04:15:12;93773.84;;;10.29;79.93
33151;BME280;19508;42.578;23.416;2023-10-31T04:17:38;93775.00;;;10.16;79.90
33151;BME280;19508;42.578;23.416;2023-10-31T04:20:04;93786.56;;;10.16;80.27
33151;BME280;19508;42.578;23.416;2023-10-31T04:22:29;93782.03;;;10.17;79.75
33151;BME280;19508;42.578;23.416;2023-10-31T04:24:55;93785.28;;;10.19;79.62
33151;BME280;19508;42.578;23.416;2023-10-31T04:27:21;93774.41;;;10.09;79.59
33151;BME280;19508;42.578;23.416;2023-10-31T04:29:47;93761.50;;;10.11;79.14
33151;BME280;19508;42.578;23.416;2023-10-31T04:32:15;93768.41;;;10.02;79.93
33151;BME280;19508;42.578;23.416;2023-10-31T04:34:40;93760.94;;;9.87;79.70
33151;BME280;19508;42.578;23.416;2023-10-31T04:37:06;93743.69;;;10.05;79.06
33151;BME280;19508;42.578;23.416;2023-10-31T04:39:31;93762.22;;;10.01;78.99
33151;BME280;19508;42.578;23.416;2023-10-31T04:41:57;93758.50;;;9.85;79.69
33151;BME280;19508;42.578;23.416;2023-10-31T04:44:22;93766.75;;;9.79;80.21
33151;BME280;19508;42.578;23.416;2023-10-31T04:46:48;93768.13;;;9.81;79.78
33151;BME280;19508;42.578;23.416;2023-10-31T04:49:14;93768.72;;;9.83;79.33
33151;BME280;19508;42.578;23.416;2023-10-31T04:51:41;93772.00;;;9.90;78.78
33151;BME280;19508;42.578;23.416;2023-10-31T04:54:06;93762.06;;;9.69;78.92
33151;BME280;19508;42.578;23.416;2023-10-31T04:56:33;93774.31;;;9.82;78.89
33151;BME280;19508;42.578;23.416;2023-10-31T04:58:58;93788.78;;;9.98;78.62
33151;BME280;19508;42.578;23.416;2023-10-31T05:01:24;93804.28;;;9.90;78.45
33151;BME280;19508;42.578;23.416;2023-10-31T05:03:49;93808.66;;;9.97;78.70
33151;BME280;19508;42.578;23.416;2023-10-31T05:06:22;93808.16;;;10.00;78.47
33151;BME280;19508;42.578;23.416;2023-10-31T05:08:48;93802.03;;;9.82;78.85
33151;BME280;19508;42.578;23.416;2023-10-31T05:11:13;93804.28;;;9.90;78.24
33151;BME280;19508;42.578;23.416;2023-10-31T05:13:39;93812.78;;;9.82;78.75
33151;BME280;19508;42.578;23.416;2023-10-31T05:16:05;93810.97;;;9.88;78.60
33151;BME280;19508;42.578;23.416;2023-10-31T05:18:30;93810.72;;;9.89;78.76
33151;BME280;19508;42.578;23.416;2023-10-31T05:20:56;93795.03;;;9.81;79.19
33151;BME280;19508;42.578;23.416;2023-10-31T05:23:41;93803.69;;;9.83;79.54
33151;BME280;19508;42.578;23.416;2023-10-31T05:26:07;93789.66;;;9.81;79.45
33151;BME280;19508;42.578;23.416;2023-10-31T05:28:32;93799.41;;;9.87;79.47
33151;BME280;19508;42.578;23.416;2023-10-31T05:30:57;93800.78;;;9.90;79.78
33151;BME280;19508;42.578;23.416;2023-10-31T05:33:23;93796.47;;;9.89;79.79
33151;BME280;19508;42.578;23.416;2023-10-31T05:35:48;93802.75;;;9.95;80.01
33151;BME280;19508;42.578;23.416;2023-10-31T05:38:14;93787.09;;;9.92;79.79
33151;BME280;19508;42.578;23.416;2023-10-31T05:40:39;93818.53;;;10.30;78.62
33151;BME280;19508;42.578;23.416;2023-10-31T05:43:05;93806.06;;;10.45;77.91
33151;BME280;19508;42.578;23.416;2023-10-31T05:45:30;93811.72;;;10.71;77.11
33151;BME280;19508;42.578;23.416;2023-10-31T05:47:56;93805.06;;;10.79;77.08
33151;BME280;19508;42.578;23.416;2023-10-31T05:50:22;93803.13;;;11.06;75.44
33151;BME280;19508;42.578;23.416;2023-10-31T05:52:47;93821.84;;;11.55;75.25
33151;BME280;19508;42.578;23.416;2023-10-31T05:55:13;93807.25;;;11.88;74.23
33151;BME280;19508;42.578;23.416;2023-10-31T05:57:42;93787.41;;;12.20;71.76
33151;BME280;19508;42.578;23.416;2023-10-31T06:00:30;93790.22;;;12.40;69.56
33151;BME280;19508;42.578;23.416;2023-10-31T06:02:58;93793.50;;;12.57;68.06
33151;BME280;19508;42.578;23.416;2023-10-31T06:05:23;93786.03;;;13.20;66.05
33151;BME280;19508;42.578;23.416;2023-10-31T06:07:51;93786.56;;;13.48;63.78
33151;BME280;19508;42.578;23.416;2023-10-31T06:10:18;93781.66;;;13.75;62.38
33151;BME280;19508;42.578;23.416;2023-10-31T06:12:44;93788.41;;;13.93;60.98
33151;BME280;19508;42.578;23.416;2023-10-31T06:15:09;93801.78;;;14.39;60.92
33151;BME280;19508;42.578;23.416;2023-10-31T06:17:35;93799.28;;;14.63;59.40
33151;BME280;19508;42.578;23.416;2023-10-31T06:20:01;93795.84;;;14.32;59.03
33151;BME280;19508;42.578;23.416;2023-10-31T06:22:27;93791.66;;;14.70;59.15
33151;BME280;19508;42.578;23.416;2023-10-31T06:24:52;93804.41;;;15.09;56.88
33151;BME280;19508;42.578;23.416;2023-10-31T06:27:21;93809.03;;;14.64;57.49
33151;BME280;19508;42.578;23.416;2023-10-31T06:29:49;93795.97;;;14.71;56.70
33151;BME280;19508;42.578;23.416;2023-10-31T06:32:15;93819.78;;;14.79;56.91
33151;BME280;19508;42.578;23.416;2023-10-31T06:34:40;93801.41;;;14.66;58.16
33151;BME280;19508;42.578;23.416;2023-10-31T06:37:06;93798.41;;;14.73;57.89
33151;BME280;19508;42.578;23.416;2023-10-31T06:39:35;93818.25;;;14.63;58.36
33151;BME280;19508;42.578;23.416;2023-10-31T06:42:03;93819.91;;;14.44;57.66
33151;BME280;19508;42.578;23.416;2023-10-31T06:44:35;93822.88;;;14.42;58.49
33151;BME280;19508;42.578;23.416;2023-10-31T06:47:02;93816.66;;;14.42;58.01
33151;BME280;19508;42.578;23.416;2023-10-31T06:49:30;93819.97;;;14.28;58.76
33151;BME280;19508;42.578;23.416;2023-10-31T06:52:19;93809.88;;;14.54;58.05
33151;BME280;19508;42.578;23.416;2023-10-31T06:55:09;93810.41;;;14.51;58.59
33151;BME280;19508;42.578;23.416;2023-10-31T06:57:35;93816.63;;;14.62;58.23
33151;BME280;19508;42.578;23.416;2023-10-31T07:00:01;93797.97;;;14.50;58.16
33151;BME280;19508;42.578;23.416;2023-10-31T07:02:26;93797.66;;;14.57;57.77
33151;BME280;19508;42.578;23.416;2023-10-31T07:04:52;93813.84;;;14.72;58.25
33151;BME280;19508;42.578;23.416;2023-10-31T07:07:17;93798.25;;;14.98;57.22
33151;BME280;19508;42.578;23.416;2023-10-31T07:09:43;93806.72;;;15.31;55.38
33151;BME280;19508;42.578;23.416;2023-10-31T07:12:09;93807.34;;;15.51;54.35
33151;BME280;19508;42.578;23.416;2023-10-31T07:14:35;93810.13;;;16.04;53.90
33151;BME280;19508;42.578;23.416;2023-10-31T07:17:00;93803.84;;;16.09;52.93
33151;BME280;19508;42.578;23.416;2023-10-31T07:19:25;93796.94;;;16.64;52.05
33151;BME280;19508;42.578;23.416;2023-10-31T07:21:51;93800.31;;;16.80;50.62
33151;BME280;19508;42.578;23.416;2023-10-31T07:24:16;93790.94;;;17.10;50.46
33151;BME280;19508;42.578;23.416;2023-10-31T07:26:42;93793.00;;;17.51;49.04
33151;BME280;19508;42.578;23.416;2023-10-31T07:29:07;93785.06;;;17.73;47.71
33151;BME280;19508;42.578;23.416;2023-10-31T07:31:33;93784.00;;;17.69;47.81
33151;BME280;19508;42.578;23.416;2023-10-31T07:34:03;93794.00;;;18.07;48.10
33151;BME280;19508;42.578;23.416;2023-10-31T07:36:30;93795.31;;;17.95;47.82
33151;BME280;19508;42.578;23.416;2023-10-31T07:38:57;93774.66;;;18.63;46.99
33151;BME280;19508;42.578;23.416;2023-10-31T07:41:25;93789.81;;;18.69;46.26
33151;BME280;19508;42.578;23.416;2023-10-31T07:43:50;93785.56;;;18.77;45.60
33151;BME280;19508;42.578;23.416;2023-10-31T07:46:17;93767.59;;;18.76;46.02
33151;BME280;19508;42.578;23.416;2023-10-31T07:48:43;93763.25;;;19.11;45.70
33151;BME280;19508;42.578;23.416;2023-10-31T07:51:21;93762.03;;;19.39;44.46
33151;BME280;19508;42.578;23.416;2023-10-31T07:53:51;93761.97;;;19.67;44.75
33151;BME280;19508;42.578;23.416;2023-10-31T07:56:26;93763.44;;;19.73;43.65
33151;BME280;19508;42.578;23.416;2023-10-31T07:59:10;93764.91;;;20.02;43.39
33151;BME280;19508;42.578;23.416;2023-10-31T08:01:36;93759.19;;;20.20;43.22
33151;BME280;19508;42.578;23.416;2023-10-31T08:04:08;93753.91;;;20.64;41.73
33151;BME280;19508;42.578;23.416;2023-10-31T08:06:35;93747.06;;;20.92;41.28
33151;BME280;19508;42.578;23.416;2023-10-31T08:09:01;93735.00;;;21.02;41.41
33151;BME280;19508;42.578;23.416;2023-10-31T08:11:27;93730.97;;;21.17;40.71
33151;BME280;19508;42.578;23.416;2023-10-31T08:13:53;93731.19;;;21.29;40.88
33151;BME280;19508;42.578;23.416;2023-10-31T08:16:18;93733.72;;;21.77;39.40
33151;BME280;19508;42.578;23.416;2023-10-31T08:18:45;93730.19;;;22.32;39.56
33151;BME280;19508;42.578;23.416;2023-10-31T08:21:12;93729.66;;;22.77;38.23
33151;BME280;19508;42.578;23.416;2023-10-31T08:23:37;93714.25;;;23.14;37.44
33151;BME280;19508;42.578;23.416;2023-10-31T08:26:03;93734.72;;;23.25;36.58
33151;BME280;19508;42.578;23.416;2023-10-31T08:28:29;93725.06;;;23.94;36.06
33151;BME280;19508;42.578;23.416;2023-10-31T08:30:55;93710.88;;;24.04;38.02
33151;BME280;19508;42.578;23.416;2023-10-31T08:33:21;93720.59;;;24.84;34.97
33151;BME280;19508;42.578;23.416;2023-10-31T08:35:46;93722.31;;;24.39;35.13
33151;BME280;19508;42.578;23.416;2023-10-31T08:38:13;93714.75;;;24.48;35.46
33151;BME280;19508;42.578;23.416;2023-10-31T08:40:38;93711.19;;;24.60;35.48
33151;BME280;19508;42.578;23.416;2023-10-31T08:43:04;93702.34;;;25.03;34.85
33151;BME280;19508;42.578;23.416;2023-10-31T08:45:32;93699.00;;;25.22;34.63
33151;BME280;19508;42.578;23.416;2023-10-31T08:47:57;93701.44;;;24.51;35.77
33151;BME280;19508;42.578;23.416;2023-10-31T08:50:23;93685.81;;;25.03;35.50
33151;BME280;19508;42.578;23.416;2023-10-31T08:52:48;93682.84;;;25.09;34.78
33151;BME280;19508;42.578;23.416;2023-10-31T08:55:14;93679.06;;;25.97;33.72
33151;BME280;19508;42.578;23.416;2023-10-31T08:57:39;93676.09;;;26.81;32.29
33151;BME280;19508;42.578;23.416;2023-10-31T09:00:08;93671.81;;;26.84;31.36
33151;BME280;19508;42.578;23.416;2023-10-31T09:02:34;93652.88;;;27.37;30.98
33151;BME280;19508;42.578;23.416;2023-10-31T09:04:59;93630.75;;;27.37;30.54
33151;BME280;19508;42.578;23.416;2023-10-31T09:07:25;93638.72;;;26.52;30.47
33151;BME280;19508;42.578;23.416;2023-10-31T09:09:50;93633.94;;;25.74;31.42
33151;BME280;19508;42.578;23.416;2023-10-31T09:12:16;93632.47;;;25.36;30.87
33151;BME280;19508;42.578;23.416;2023-10-31T09:14:42;93628.69;;;25.13;31.98
33151;BME280;19508;42.578;23.416;2023-10-31T09:17:07;93629.63;;;26.36;30.01
33151;BME280;19508;42.578;23.416;2023-10-31T09:19:32;93619.91;;;25.51;31.72
33151;BME280;19508;42.578;23.416;2023-10-31T09:21:58;93623.91;;;25.97;30.19
33151;BME280;19508;42.578;23.416;2023-10-31T09:24:23;93615.09;;;25.76;30.09
33151;BME280;19508;42.578;23.416;2023-10-31T09:26:49;93613.84;;;24.65;31.99
33151;BME280;19508;42.578;23.416;2023-10-31T09:29:16;93604.41;;;25.18;30.67
33151;BME280;19508;42.578;23.416;2023-10-31T09:31:41;93606.25;;;24.74;31.05
33151;BME280;19508;42.578;23.416;2023-10-31T09:34:07;93590.13;;;25.13;33.14
33151;BME280;19508;42.578;23.416;2023-10-31T09:36:32;93597.81;;;25.35;31.56
33151;BME280;19508;42.578;23.416;2023-10-31T09:38:59;93591.47;;;25.63;31.81
33151;BME280;19508;42.578;23.416;2023-10-31T09:41:24;93581.66;;;25.49;31.47
33151;BME280;19508;42.578;23.416;2023-10-31T09:43:53;93570.69;;;25.97;29.08
33151;BME280;19508;42.578;23.416;2023-10-31T09:46:21;93577.31;;;26.24;28.72
33151;BME280;19508;42.578;23.416;2023-10-31T09:48:46;93584.03;;;25.35;29.24
33151;BME280;19508;42.578;23.416;2023-10-31T09:51:13;93571.28;;;25.15;29.72
33151;BME280;19508;42.578;23.416;2023-10-31T09:53:41;93569.22;;;24.99;30.42
33151;BME280;19508;42.578;23.416;2023-10-31T09:56:09;93556.50;;;24.95;29.93
33151;BME280;19508;42.578;23.416;2023-10-31T09:58:35;93545.63;;;24.86;29.96
33151;BME280;19508;42.578;23.416;2023-10-31T10:01:00;93542.41;;;24.96;28.83
33151;BME280;19508;42.578;23.416;2023-10-31T10:03:27;93542.63;;;25.63;27.59
33151;BME280;19508;42.578;23.416;2023-10-31T10:05:53;93532.09;;;25.97;26.95
33151;BME280;19508;42.578;23.416;2023-10-31T10:08:19;93522.50;;;25.75;28.01
33151;BME280;19508;42.578;23.416;2023-10-31T10:10:45;93525.69;;;25.77;26.63
33151;BME280;19508;42.578;23.416;2023-10-31T10:13:11;93523.19;;;26.03;27.86
33151;BME280;19508;42.578;23.416;2023-10-31T10:15:48;93520.75;;;25.39;28.35
33151;BME280;19508;42.578;23.416;2023-10-31T10:18:31;93520.97;;;25.77;27.23
33151;BME280;19508;42.578;23.416;2023-10-31T10:20:59;93515.22;;;25.23;28.38
33151;BME280;19508;42.578;23.416;2023-10-31T10:23:26;93499.72;;;24.90;27.70
33151;BME280;19508;42.578;23.416;2023-10-31T10:25:54;93500.81;;;25.01;28.78
33151;BME280;19508;42.578;23.416;2023-10-31T10:28:20;93499.72;;;24.62;27.42
33151;BME280;19508;42.578;23.416;2023-10-31T10:30:48;93500.91;;;24.77;28.58
33151;BME280;19508;42.578;23.416;2023-10-31T10:33:14;93501.75;;;24.13;28.78
33151;BME280;19508;42.578;23.416;2023-10-31T10:35:40;93488.81;;;24.13;28.93
33151;BME280;19508;42.578;23.416;2023-10-31T10:38:16;93487.00;;;23.81;30.35
33151;BME280;19508;42.578;23.416;2023-10-31T10:40:47;93479.38;;;24.27;30.10
33151;BME280;19508;42.578;23.416;2023-10-31T10:43:23;93483.84;;;24.31;28.23
33151;BME280;19508;42.578;23.416;2023-10-31T10:45:56;93479.25;;;24.35;28.63
33151;BME280;19508;42.578;23.416;2023-10-31T10:48:24;93477.00;;;24.37;28.67
33151;BME280;19508;42.578;23.416;2023-10-31T10:51:29;93483.63;;;24.24;30.46
33151;BME280;19508;42.578;23.416;2023-10-31T10:54:15;93472.44;;;23.92;30.61
33151;BME280;19508;42.578;23.416;2023-10-31T10:56:54;93466.94;;;23.92;29.92
33151;BME280;19508;42.578;23.416;2023-10-31T10:59:38;93458.00;;;23.47;30.53
33151;BME280;19508;42.578;23.416;2023-10-31T11:02:06;93456.88;;;23.72;30.02
33151;BME280;19508;42.578;23.416;2023-10-31T11:04:33;93442.78;;;23.74;30.80
33151;BME280;19508;42.578;23.416;2023-10-31T11:07:00;93446.34;;;23.86;30.61
33151;BME280;19508;42.578;23.416;2023-10-31T11:09:25;93437.66;;;23.84;30.21
33151;BME280;19508;42.578;23.416;2023-10-31T11:11:52;93419.44;;;23.80;29.58
33151;BME280;19508;42.578;23.416;2023-10-31T11:17:42;93410.06;;;24.09;30.35
33151;BME280;19508;42.578;23.416;2023-10-31T11:20:10;93406.28;;;23.61;30.55
33151;BME280;19508;42.578;23.416;2023-10-31T11:22:44;93415.22;;;23.70;30.65
33151;BME280;19508;42.578;23.416;2023-10-31T11:25:13;93408.53;;;23.83;30.85
33151;BME280;19508;42.578;23.416;2023-10-31T11:27:39;93407.88;;;23.62;30.63
33151;BME280;19508;42.578;23.416;2023-10-31T11:30:08;93412.00;;;23.68;32.18
33151;BME280;19508;42.578;23.416;2023-10-31T11:32:35;93391.84;;;23.52;31.60
33151;BME280;19508;42.578;23.416;2023-10-31T11:35:01;93402.94;;;23.55;32.19
33151;BME280;19508;42.578;23.416;2023-10-31T11:37:35;93384.19;;;23.33;31.96
33151;BME280;19508;42.578;23.416;2023-10-31T11:40:21;93394.09;;;23.13;33.15
33151;BME280;19508;42.578;23.416;2023-10-31T11:42:49;93393.88;;;23.06;32.66
33151;BME280;19508;42.578;23.416;2023-10-31T11:45:42;93389.41;;;23.14;33.12
33151;BME280;19508;42.578;23.416;2023-10-31T11:48:12;93385.88;;;23.01;34.94
33151;BME280;19508;42.578;23.416;2023-10-31T11:50:38;93375.69;;;23.14;33.73
33151;BME280;19508;42.578;23.416;2023-10-31T11:53:09;93376.72;;;23.09;33.76
33151;BME280;19508;42.578;23.416;2023-10-31T11:55:40;93364.47;;;23.06;33.04
33151;BME280;19508;42.578;23.416;2023-10-31T11:58:25;93358.41;;;23.13;33.58
33151;BME280;19508;42.578;23.416;2023-10-31T12:01:06;93366.88;;;23.20;33.18
33151;BME280;19508;42.578;23.416;2023-10-31T12:03:43;93354.97;;;22.92;34.29
33151;BME280;19508;42.578;23.416;2023-10-31T12:06:14;93350.63;;;23.03;34.76
33151;BME280;19508;42.578;23.416;2023-10-31T12:08:41;93353.84;;;23.29;33.71
33151;BME280;19508;42.578;23.416;2023-10-31T12:11:15;93347.41;;;22.89;34.53
33151;BME280;19508;42.578;23.416;2023-10-31T12:13:58;93344.22;;;23.11;35.00
33151;BME280;19508;42.578;23.416;2023-10-31T12:16:28;93335.53;;;23.21;34.67
33151;BME280;19508;42.578;23.416;2023-10-31T12:18:58;93335.66;;;23.13;34.12
33151;BME280;19508;42.578;23.416;2023-10-31T12:24:05;93331.03;;;23.41;35.28
33151;BME280;19508;42.578;23.416;2023-10-31T12:26:33;93337.47;;;23.21;33.74
33151;BME280;19508;42.578;23.416;2023-10-31T12:29:17;93333.66;;;23.50;33.23
33151;BME280;19508;42.578;23.416;2023-10-31T12:31:53;93338.56;;;23.81;33.22
33151;BME280;19508;42.578;23.416;2023-10-31T12:34:21;93335.19;;;24.00;32.93
33151;BME280;19508;42.578;23.416;2023-10-31T12:36:54;93333.72;;;24.18;32.67
33151;BME280;19508;42.578;23.416;2023-10-31T12:39:24;93324.88;;;23.97;33.54
33151;BME280;19508;42.578;23.416;2023-10-31T12:41:49;93315.91;;;24.12;31.92
33151;BME280;19508;42.578;23.416;2023-10-31T12:44:23;93310.56;;;23.91;32.47
33151;BME280;19508;42.578;23.416;2023-10-31T12:46:48;93305.63;;;24.37;33.59
33151;BME280;19508;42.578;23.416;2023-10-31T12:49:19;93299.44;;;24.71;31.73
33151;BME280;19508;42.578;23.416;2023-10-31T12:52:04;93298.19;;;24.85;32.06
33151;BME280;19508;42.578;23.416;2023-10-31T12:54:35;93294.19;;;24.82;31.15
33151;BME280;19508;42.578;23.416;2023-10-31T12:57:03;93292.41;;;24.74;31.26
33151;BME280;19508;42.578;23.416;2023-10-31T12:59:31;93287.44;;;24.64;31.66